Time;durP1;ratioP1;P1;durP2;ratioP2;P2;SDS_P1;SDS_P2;PMS_P1;PMS_P2;Temp;Humidity;BMP_temperature;BMP_pressure;BME280_temperature;BME280_humidity;BME280_pressure;Samples;Min_cycle;Max_cycle;Signal;HPM_P1;HPM_P2
2022/04/26 03:36:59;;;;;;;29.33;25.93;;;;;;;;;;4986982;28;20696;-52
2022/04/26 03:39:25;;;;;;;31.00;25.37;;;;;;;;;;4979682;28;20191;-53
2022/04/26 03:41:51;;;;;;;29.40;25.73;;;;;;;;;;4981837;28;20210;-53
2022/04/26 03:44:17;;;;;;;28.03;25.03;;;;;;;;;;4983052;28;20182;-53
2022/04/26 03:46:43;;;;;;;29.87;26.17;;;;;;;;;;4986198;28;20194;-53
2022/04/26 03:49:09;;;;;;;31.60;27.23;;;;;;;;;;4987560;28;20190;-53
2022/04/26 03:51:35;;;;;;;31.03;27.63;;;;;;;;;;4984615;28;20213;-53
2022/04/26 03:54:01;;;;;;;31.73;27.70;;;;;;;;;;4987690;28;20194;-54
2022/04/26 03:56:27;;;;;;;32.23;28.90;;;;;;;;;;4986609;28;20265;-53
2022/04/26 03:58:53;;;;;;;31.17;27.97;;;;;;;;;;4990943;28;20271;-54
2022/04/26 04:01:19;;;;;;;32.13;27.37;;;;;;;;;;4981352;28;20313;-54
2022/04/26 04:03:44;;;;;;;30.60;27.37;;;;;;;;;;4981577;28;20194;-53
2022/04/26 04:06:10;;;;;;;32.27;28.77;;;;;;;;;;4985389;28;20202;-53
2022/04/26 04:08:36;;;;;;;31.60;28.17;;;;;;;;;;4979559;28;20230;-53
2022/04/26 04:11:02;;;;;;;32.77;29.10;;;;;;;;;;4987780;28;20280;-53
2022/04/26 04:13:28;;;;;;;33.27;29.67;;;;;;;;;;4988688;28;20272;-53
2022/04/26 04:15:54;;;;;;;32.93;29.43;;;;;;;;;;4986786;28;20185;-54
2022/04/26 04:21:05;;;;;;;31.40;28.10;;;;;;;;;;4973938;28;20666;-52
2022/04/26 04:23:30;;;;;;;34.83;31.03;;;;;;;;;;4983277;28;20190;-54
2022/04/26 04:25:56;;;;;;;32.37;28.97;;;;;;;;;;4974957;28;20201;-53
2022/04/26 04:28:22;;;;;;;32.07;28.77;;;;;;;;;;4981778;28;20186;-53
2022/04/26 04:30:48;;;;;;;33.33;28.63;;;;;;;;;;4974946;28;24273;-53
2022/04/26 04:33:14;;;;;;;32.60;29.13;;;;;;;;;;4978595;28;20185;-53
2022/04/26 04:35:40;;;;;;;33.23;29.50;;;;;;;;;;4980034;28;20276;-53
2022/04/26 04:38:06;;;;;;;33.57;29.90;;;;;;;;;;4979558;28;20633;-53
2022/04/26 04:40:32;;;;;;;32.50;29.00;;;;;;;;;;4974725;28;20214;-53
2022/04/26 04:42:58;;;;;;;33.63;28.97;;;;;;;;;;4981743;28;20185;-54
2022/04/26 04:45:24;;;;;;;31.83;28.40;;;;;;;;;;4979383;28;20186;-53
2022/04/26 04:47:50;;;;;;;30.10;26.90;;;;;;;;;;4978429;28;20705;-52
2022/04/26 04:50:16;;;;;;;31.50;26.10;;;;;;;;;;4976777;28;20826;-53
2022/04/26 04:52:42;;;;;;;32.00;26.83;;;;;;;;;;4941145;28;20568;-53
2022/04/26 04:55:08;;;;;;;30.03;26.83;;;;;;;;;;4950102;28;20281;-54
2022/04/26 04:57:34;;;;;;;29.17;25.63;;;;;;;;;;4969675;28;20671;-53
2022/04/26 05:00:00;;;;;;;29.00;25.73;;;;;;;;;;4972940;28;20201;-54
2022/04/26 05:02:26;;;;;;;28.77;25.67;;;;;;;;;;4967070;28;20225;-53
2022/04/26 05:04:52;;;;;;;27.87;24.47;;;;;;;;;;4969273;28;20638;-53
2022/04/26 05:07:18;;;;;;;28.40;23.97;;;;;;;;;;4963703;28;20733;-54
2022/04/26 05:09:44;;;;;;;25.37;22.67;;;;;;;;;;4973144;28;20198;-54
2022/04/26 05:12:10;;;;;;;27.93;23.97;;;;;;;;;;4970584;28;20218;-54
2022/04/26 05:14:36;;;;;;;28.93;23.27;;;;;;;;;;4970017;28;20205;-54
2022/04/26 05:17:02;;;;;;;26.70;23.90;;;;;;;;;;4972927;28;20663;-53
2022/04/26 05:19:28;;;;;;;30.90;25.37;;;;;;;;;;4969955;28;20194;-54
2022/04/26 05:21:54;;;;;;;27.10;24.27;;;;;;;;;;4977771;28;20213;-53
2022/04/26 05:27:05;;;;;;;30.73;25.23;;;;;;;;;;4986502;28;20244;-53
2022/04/26 05:29:31;;;;;;;31.00;26.23;;;;;;;;;;4985144;28;20202;-53
2022/04/26 05:31:57;;;;;;;31.37;25.20;;;;;;;;;;4981423;28;20193;-54
2022/04/26 05:34:23;;;;;;;30.57;25.83;;;;;;;;;;4984572;28;20193;-54
2022/04/26 05:36:49;;;;;;;28.47;23.70;;;;;;;;;;4986895;28;20243;-54
2022/04/26 05:39:15;;;;;;;28.57;23.70;;;;;;;;;;4983423;28;20239;-54
2022/04/26 05:41:41;;;;;;;26.10;21.13;;;;;;;;;;4984508;28;20299;-54
2022/04/26 05:44:07;;;;;;;28.87;21.73;;;;;;;;;;4985301;28;20660;-54
2022/04/26 05:46:32;;;;;;;23.67;21.00;;;;;;;;;;4979031;28;20861;-54
2022/04/26 05:48:58;;;;;;;22.73;19.47;;;;;;;;;;4989321;28;20198;-54
2022/04/26 05:51:24;;;;;;;23.23;18.90;;;;;;;;;;4985109;28;20878;-53
2022/04/26 05:53:50;;;;;;;19.73;16.73;;;;;;;;;;4983574;28;20663;-54
2022/04/26 05:56:16;;;;;;;18.17;16.27;;;;;;;;;;4982638;28;20190;-54
2022/04/26 05:58:42;;;;;;;18.23;16.10;;;;;;;;;;4988006;28;20220;-54
2022/04/26 06:01:08;;;;;;;19.37;16.00;;;;;;;;;;4983641;28;20304;-54
2022/04/26 06:03:34;;;;;;;17.77;14.80;;;;;;;;;;4984541;28;20187;-53
2022/04/26 06:06:00;;;;;;;18.60;15.20;;;;;;;;;;4981941;28;20217;-53
2022/04/26 06:08:26;;;;;;;16.10;14.10;;;;;;;;;;4982309;28;20260;-54
2022/04/26 06:10:52;;;;;;;14.47;12.97;;;;;;;;;;4982430;28;20189;-54
2022/04/26 06:13:18;;;;;;;17.33;14.40;;;;;;;;;;4985378;28;20221;-54
2022/04/26 06:15:44;;;;;;;16.07;13.33;;;;;;;;;;4988083;28;20195;-53
2022/04/26 06:18:10;;;;;;;16.03;14.30;;;;;;;;;;4989029;28;20193;-54
2022/04/26 06:20:35;;;;;;;17.03;14.10;;;;;;;;;;4985752;28;20187;-54
2022/04/26 06:23:02;;;;;;;16.57;14.20;;;;;;;;;;4969221;28;20653;-54
2022/04/26 06:25:28;;;;;;;20.57;15.83;;;;;;;;;;4989915;28;20636;-54
2022/04/26 06:27:54;;;;;;;18.50;15.13;;;;;;;;;;4985413;28;20194;-54
2022/04/26 06:30:19;;;;;;;19.60;15.17;;;;;;;;;;4985015;28;20187;-54
2022/04/26 06:32:45;;;;;;;18.43;15.93;;;;;;;;;;4994171;28;21064;-53
2022/04/26 06:35:11;;;;;;;20.47;15.67;;;;;;;;;;4992724;28;20236;-54
2022/04/26 06:37:37;;;;;;;20.77;15.40;;;;;;;;;;4994890;28;20662;-54
2022/04/26 06:40:04;;;;;;;22.07;16.23;;;;;;;;;;4984390;28;20240;-54
2022/04/26 06:42:32;;;;;;;19.40;16.50;;;;;;;;;;4990449;28;20304;-54
2022/04/26 06:44:57;;;;;;;20.70;17.03;;;;;;;;;;4988048;28;20201;-53
2022/04/26 06:47:23;;;;;;;25.83;17.67;;;;;;;;;;4988248;28;20647;-54
2022/04/26 06:49:49;;;;;;;23.00;17.20;;;;;;;;;;4988287;28;21290;-53
2022/04/26 06:52:15;;;;;;;27.70;17.27;;;;;;;;;;4988461;28;20182;-54
2022/04/26 06:54:41;;;;;;;29.97;19.13;;;;;;;;;;4983225;28;20186;-54
2022/04/26 06:57:08;;;;;;;28.33;19.27;;;;;;;;;;4986061;28;20202;-54
2022/04/26 06:59:34;;;;;;;28.03;18.80;;;;;;;;;;4987549;28;21126;-54
2022/04/26 07:02:00;;;;;;;32.93;19.63;;;;;;;;;;4985896;28;20249;-53
2022/04/26 07:04:26;;;;;;;27.23;20.13;;;;;;;;;;4988213;28;20350;-54
2022/04/26 07:06:52;;;;;;;31.40;19.97;;;;;;;;;;4986127;28;20234;-54
2022/04/26 07:09:19;;;;;;;30.60;19.53;;;;;;;;;;4988448;28;20208;-54
2022/04/26 07:11:46;;;;;;;28.97;19.23;;;;;;;;;;4981952;28;20268;-54
2022/04/26 07:14:12;;;;;;;28.33;19.60;;;;;;;;;;4984981;28;20658;-54
2022/04/26 07:16:38;;;;;;;29.90;18.67;;;;;;;;;;4988685;28;20658;-54
2022/04/26 07:19:04;;;;;;;30.90;19.20;;;;;;;;;;4989662;28;20182;-54
2022/04/26 07:21:30;;;;;;;29.57;18.93;;;;;;;;;;4988002;28;20230;-53
2022/04/26 07:23:56;;;;;;;27.70;18.60;;;;;;;;;;4987228;28;20211;-53
2022/04/26 07:26:22;;;;;;;25.93;18.70;;;;;;;;;;4987387;28;20555;-54
2022/04/26 07:28:48;;;;;;;30.73;18.63;;;;;;;;;;4989114;28;20706;-54
2022/04/26 07:31:14;;;;;;;30.17;19.60;;;;;;;;;;4983723;28;20194;-54
2022/04/26 07:36:25;;;;;;;30.37;21.33;;;;;;;;;;4988280;28;20209;-54
2022/04/26 07:38:51;;;;;;;30.33;20.93;;;;;;;;;;4984279;28;20660;-54
2022/04/26 07:41:17;;;;;;;34.67;22.43;;;;;;;;;;4987862;28;20209;-54
2022/04/26 07:43:44;;;;;;;31.00;23.27;;;;;;;;;;4979782;28;20836;-54
2022/04/26 07:46:12;;;;;;;28.73;22.37;;;;;;;;;;4987727;28;20554;-53
2022/04/26 07:48:39;;;;;;;35.40;25.50;;;;;;;;;;4989446;28;20194;-54
2022/04/26 07:51:05;;;;;;;36.50;26.87;;;;;;;;;;4987984;28;20221;-54
2022/04/26 07:53:31;;;;;;;37.07;26.90;;;;;;;;;;4986408;28;20289;-54
2022/04/26 07:55:57;;;;;;;35.03;26.67;;;;;;;;;;4984026;28;20197;-54
2022/04/26 07:58:23;;;;;;;33.73;26.33;;;;;;;;;;4988404;28;20214;-53
2022/04/26 08:00:49;;;;;;;35.07;27.20;;;;;;;;;;4991385;28;20202;-54
2022/04/26 08:03:16;;;;;;;39.73;28.13;;;;;;;;;;4980357;28;20558;-54
2022/04/26 08:05:42;;;;;;;41.77;29.10;;;;;;;;;;4979193;28;20343;-54
2022/04/26 08:08:08;;;;;;;38.80;28.10;;;;;;;;;;4987190;28;20237;-54
2022/04/26 08:10:36;;;;;;;38.87;28.53;;;;;;;;;;4990879;28;20568;-54
2022/04/26 08:13:02;;;;;;;36.80;28.50;;;;;;;;;;4983500;28;20282;-53
2022/04/26 08:15:28;;;;;;;39.53;28.50;;;;;;;;;;4989839;28;20237;-54
2022/04/26 08:17:53;;;;;;;38.50;29.60;;;;;;;;;;4986020;28;20849;-54
2022/04/26 08:20:19;;;;;;;41.10;30.40;;;;;;;;;;4984669;28;20276;-54
2022/04/26 08:22:45;;;;;;;41.13;30.73;;;;;;;;;;4989969;28;20245;-54
2022/04/26 08:27:56;;;;;;;44.37;34.73;;;;;;;;;;4976707;28;20197;-54
2022/04/26 08:30:22;;;;;;;44.93;34.33;;;;;;;;;;4986200;28;20566;-54
2022/04/26 08:32:48;;;;;;;43.37;36.43;;;;;;;;;;4987307;28;20567;-54
2022/04/26 08:35:16;;;;;;;46.43;37.37;;;;;;;;;;4988266;28;20654;-54
2022/04/26 08:37:43;;;;;;;49.50;37.43;;;;;;;;;;4987370;28;20243;-53
2022/04/26 08:40:09;;;;;;;48.00;36.27;;;;;;;;;;4982448;28;20718;-54
2022/04/26 08:42:36;;;;;;;43.13;35.77;;;;;;;;;;4986634;28;20591;-54
2022/04/26 08:45:02;;;;;;;44.70;35.57;;;;;;;;;;4979821;28;20475;-55
2022/04/26 08:52:58;;;;;;;45.67;38.27;;;;;;;;;;4985713;28;20874;-55
2022/04/26 08:55:24;;;;;;;47.80;39.17;;;;;;;;;;4982229;28;20190;-54
2022/04/26 08:57:50;;;;;;;52.27;39.93;;;;;;;;;;4985406;28;20213;-54
2022/04/26 09:00:16;;;;;;;52.30;43.00;;;;;;;;;;4987702;28;20194;-54
2022/04/26 09:02:42;;;;;;;52.40;43.83;;;;;;;;;;4987820;28;21443;-54
2022/04/26 09:05:12;;;;;;;49.40;41.90;;;;;;;;;;4985588;28;20193;-54
2022/04/26 09:07:39;;;;;;;58.00;45.37;;;;;;;;;;4981847;28;20237;-54
2022/04/26 09:10:11;;;;;;;52.87;44.13;;;;;;;;;;4983775;28;20224;-54
2022/04/26 09:12:56;;;;;;;56.93;44.90;;;;;;;;;;4987034;28;20200;-54
2022/04/26 09:15:22;;;;;;;55.13;45.03;;;;;;;;;;4982440;28;20216;-53
2022/04/26 09:17:49;;;;;;;52.93;45.43;;;;;;;;;;4985465;28;20313;-54
2022/04/26 09:20:15;;;;;;;54.03;44.30;;;;;;;;;;4986174;28;20720;-54
2022/04/26 09:22:42;;;;;;;53.23;44.00;;;;;;;;;;4988424;28;20300;-54
2022/04/26 09:25:08;;;;;;;55.33;45.73;;;;;;;;;;4984534;28;20207;-54
2022/04/26 09:27:36;;;;;;;55.47;46.20;;;;;;;;;;4986588;28;20539;-54
2022/04/26 09:30:08;;;;;;;55.00;46.23;;;;;;;;;;4985520;28;20192;-54
2022/04/26 09:32:47;;;;;;;54.67;46.23;;;;;;;;;;4986196;28;20270;-54
2022/04/26 09:35:23;;;;;;;56.23;45.23;;;;;;;;;;4984747;28;20610;-54
2022/04/26 09:37:49;;;;;;;54.10;45.77;;;;;;;;;;4987967;28;20547;-54
2022/04/26 09:40:15;;;;;;;53.73;46.40;;;;;;;;;;4985393;28;20311;-54
2022/04/26 09:42:41;;;;;;;54.27;46.10;;;;;;;;;;4989284;28;20227;-54
2022/04/26 09:45:07;;;;;;;53.23;45.10;;;;;;;;;;4981170;28;20209;-54
2022/04/26 09:47:43;;;;;;;55.03;45.63;;;;;;;;;;4987202;28;20275;-53
2022/04/26 09:50:12;;;;;;;53.27;45.53;;;;;;;;;;4982814;28;20274;-53
2022/04/26 09:52:38;;;;;;;49.33;43.33;;;;;;;;;;4987081;28;20193;-54
2022/04/26 09:55:05;;;;;;;54.13;47.37;;;;;;;;;;4985188;28;20245;-54
2022/04/26 09:57:32;;;;;;;52.03;45.90;;;;;;;;;;4982562;28;20709;-54
2022/04/26 09:59:59;;;;;;;51.90;46.27;;;;;;;;;;4982939;28;20216;-54
2022/04/26 10:02:26;;;;;;;52.87;46.27;;;;;;;;;;4985738;28;20231;-54
2022/04/26 10:04:53;;;;;;;53.33;47.47;;;;;;;;;;4983881;28;20723;-54
2022/04/26 10:07:19;;;;;;;52.73;47.23;;;;;;;;;;4981464;28;20660;-54
2022/04/26 10:09:48;;;;;;;50.13;44.83;;;;;;;;;;4984731;28;20209;-54
2022/04/26 10:12:14;;;;;;;49.00;43.87;;;;;;;;;;4985396;28;20844;-54
2022/04/26 10:14:40;;;;;;;49.73;44.70;;;;;;;;;;4988045;28;20190;-54
2022/04/26 10:17:07;;;;;;;47.93;42.93;;;;;;;;;;4983148;28;20659;-55
2022/04/26 10:19:43;;;;;;;47.97;42.87;;;;;;;;;;4981124;28;20205;-55
2022/04/26 10:22:10;;;;;;;46.23;41.63;;;;;;;;;;4980975;28;20213;-55
2022/04/26 10:24:38;;;;;;;47.17;42.47;;;;;;;;;;4984962;28;20194;-55
2022/04/26 10:27:20;;;;;;;46.70;41.80;;;;;;;;;;4988624;28;20190;-55
2022/04/26 10:29:46;;;;;;;45.50;41.03;;;;;;;;;;4972292;28;21141;-54
2022/04/26 10:32:16;;;;;;;44.20;40.07;;;;;;;;;;4982594;28;20198;-55
2022/04/26 10:34:42;;;;;;;43.70;39.30;;;;;;;;;;4998515;28;20334;-54
2022/04/26 10:37:08;;;;;;;44.20;39.77;;;;;;;;;;4986573;28;20218;-54
2022/04/26 10:39:37;;;;;;;43.03;38.80;;;;;;;;;;4981867;28;20186;-54
2022/04/26 10:42:07;;;;;;;44.00;39.40;;;;;;;;;;4985069;28;20735;-54
2022/04/26 10:44:33;;;;;;;41.93;37.73;;;;;;;;;;4984601;28;20509;-55
2022/04/26 10:47:02;;;;;;;40.73;36.80;;;;;;;;;;4983937;28;20190;-54
2022/04/26 10:49:40;;;;;;;42.37;38.17;;;;;;;;;;4984833;28;20186;-54
2022/04/26 10:52:17;;;;;;;40.87;36.93;;;;;;;;;;4985038;28;20209;-54
2022/04/26 10:54:53;;;;;;;38.87;35.03;;;;;;;;;;4983551;28;20194;-54
2022/04/26 10:57:22;;;;;;;38.00;34.13;;;;;;;;;;4982526;28;20571;-55
2022/04/26 10:59:48;;;;;;;35.63;32.03;;;;;;;;;;4984468;28;20186;-55
2022/04/26 11:02:17;;;;;;;33.73;30.33;;;;;;;;;;4986664;28;20244;-55
2022/04/26 11:04:44;;;;;;;30.30;27.40;;;;;;;;;;4983847;28;20605;-54
2022/04/26 11:07:12;;;;;;;28.50;25.50;;;;;;;;;;4988851;28;20237;-55
2022/04/26 11:09:49;;;;;;;26.43;23.87;;;;;;;;;;4989526;28;20606;-55
2022/04/26 11:12:15;;;;;;;27.07;24.37;;;;;;;;;;4986742;28;20573;-55
2022/04/26 11:14:42;;;;;;;29.00;26.37;;;;;;;;;;4984600;28;20663;-55
2022/04/26 11:17:08;;;;;;;29.83;27.00;;;;;;;;;;4989706;28;20255;-54
2022/04/26 11:19:37;;;;;;;28.23;25.73;;;;;;;;;;4985889;28;22751;-54
2022/04/26 11:22:07;;;;;;;30.80;27.80;;;;;;;;;;4989515;28;20225;-54
2022/04/26 11:30:03;;;;;;;26.97;24.37;;;;;;;;;;4983662;28;20241;-55
2022/04/26 11:32:34;;;;;;;26.02;23.33;;;;;;;;;;4985868;28;20205;-55
2022/04/26 11:35:00;;;;;;;26.42;23.90;;;;;;;;;;4985098;28;20799;-56
2022/04/26 11:37:26;;;;;;;30.97;27.97;;;;;;;;;;4985997;28;20224;-55
2022/04/26 11:39:52;;;;;;;35.23;31.73;;;;;;;;;;4979343;28;20185;-55
2022/04/26 11:42:19;;;;;;;35.13;31.73;;;;;;;;;;4985116;28;20595;-55
2022/04/26 11:45:01;;;;;;;34.00;30.70;;;;;;;;;;4979502;28;20182;-55
2022/04/26 11:47:36;;;;;;;34.23;31.00;;;;;;;;;;4988655;28;20214;-55
2022/04/26 11:50:09;;;;;;;36.80;33.13;;;;;;;;;;4984259;28;20221;-55
2022/04/26 11:52:35;;;;;;;36.37;32.77;;;;;;;;;;4983181;28;20202;-55
2022/04/26 11:55:01;;;;;;;34.63;31.03;;;;;;;;;;4981558;28;20182;-55
2022/04/26 11:57:27;;;;;;;35.23;31.40;;;;;;;;;;4984842;28;20278;-55
2022/04/26 11:59:53;;;;;;;34.40;31.07;;;;;;;;;;4989347;28;20182;-55
2022/04/26 12:02:19;;;;;;;32.73;29.60;;;;;;;;;;4987368;28;20224;-55
2022/04/26 12:04:45;;;;;;;32.67;29.33;;;;;;;;;;4986463;28;20182;-56
2022/04/26 12:07:11;;;;;;;26.60;23.83;;;;;;;;;;4983519;28;20233;-53
2022/04/26 12:09:37;;;;;;;22.50;20.10;;;;;;;;;;4988070;28;20224;-54
2022/04/26 12:12:05;;;;;;;20.40;18.50;;;;;;;;;;4982859;28;20198;-54
2022/04/26 12:14:31;;;;;;;19.10;17.05;;;;;;;;;;4980223;28;20216;-54
2022/04/26 12:16:57;;;;;;;19.13;17.23;;;;;;;;;;4982422;28;20189;-54
2022/04/26 12:19:35;;;;;;;18.38;16.48;;;;;;;;;;4975563;28;20206;-54
2022/04/26 12:22:01;;;;;;;16.85;15.25;;;;;;;;;;4980122;28;20215;-54
2022/04/26 12:24:29;;;;;;;18.23;16.45;;;;;;;;;;4973517;28;20214;-54
2022/04/26 12:27:01;;;;;;;16.58;14.98;;;;;;;;;;4977296;28;20186;-54
2022/04/26 12:29:28;;;;;;;15.68;14.07;;;;;;;;;;4973249;28;20749;-54
2022/04/26 12:31:54;;;;;;;13.52;12.27;;;;;;;;;;4978896;28;20569;-54
2022/04/26 12:34:20;;;;;;;13.60;12.20;;;;;;;;;;4980795;28;20204;-54
2022/04/26 12:37:03;;;;;;;14.25;12.52;;;;;;;;;;4982494;28;20189;-55
2022/04/26 12:39:41;;;;;;;13.52;12.18;;;;;;;;;;4973123;28;20190;-53
2022/04/26 12:42:17;;;;;;;12.70;11.60;;;;;;;;;;4964028;28;20776;-54
2022/04/26 12:44:52;;;;;;;13.27;11.70;;;;;;;;;;4964015;28;20716;-53
2022/04/26 12:52:52;;;;;;;11.10;10.05;;;;;;;;;;4980512;28;20197;-54
2022/04/26 12:55:28;;;;;;;12.07;10.98;;;;;;;;;;4978121;28;20194;-53
2022/04/26 12:57:54;;;;;;;12.57;10.63;;;;;;;;;;4966693;28;20202;-54
2022/04/26 13:00:21;;;;;;;10.15;9.27;;;;;;;;;;4965886;28;20193;-56
2022/04/26 13:02:51;;;;;;;12.50;11.40;;;;;;;;;;4973157;28;20225;-54
2022/04/26 13:05:17;;;;;;;11.80;10.70;;;;;;;;;;4968932;28;20252;-53
2022/04/26 13:07:45;;;;;;;11.52;10.52;;;;;;;;;;4978665;28;20722;-54
2022/04/26 13:10:11;;;;;;;11.95;10.75;;;;;;;;;;4977694;28;20550;-54
2022/04/26 13:12:37;;;;;;;12.70;11.50;;;;;;;;;;4976801;28;20598;-54
2022/04/26 13:15:04;;;;;;;10.07;9.07;;;;;;;;;;4971944;28;20197;-53
2022/04/26 13:17:29;;;;;;;16.08;12.60;;;;;;;;;;4977574;28;20214;-54
2022/04/26 13:19:56;;;;;;;15.82;14.40;;;;;;;;;;4978718;28;20186;-55
2022/04/26 13:22:22;;;;;;;17.73;14.20;;;;;;;;;;4978134;28;20242;-54
2022/04/26 13:24:49;;;;;;;13.70;12.33;;;;;;;;;;4981383;28;20298;-53
2022/04/26 13:27:16;;;;;;;16.27;13.23;;;;;;;;;;4978473;28;20189;-53
2022/04/26 13:29:42;;;;;;;13.10;10.67;;;;;;;;;;4977726;28;20683;-53
2022/04/26 13:32:08;;;;;;;12.35;11.15;;;;;;;;;;4983529;28;20186;-54
2022/04/26 13:34:34;;;;;;;15.57;11.82;;;;;;;;;;4986218;28;20198;-53
2022/04/26 13:37:00;;;;;;;11.82;10.70;;;;;;;;;;4982485;28;20201;-54
2022/04/26 13:39:26;;;;;;;12.57;10.70;;;;;;;;;;4979677;28;20252;-53
2022/04/26 13:41:52;;;;;;;9.98;8.77;;;;;;;;;;4982918;28;20232;-53
2022/04/26 13:44:21;;;;;;;10.15;9.25;;;;;;;;;;4991130;28;20225;-57
2022/04/26 13:46:47;;;;;;;10.05;9.15;;;;;;;;;;4975323;28;20205;-54
2022/04/26 13:49:13;;;;;;;10.20;9.23;;;;;;;;;;4967304;28;20555;-54
2022/04/26 13:51:39;;;;;;;11.13;9.32;;;;;;;;;;4974541;28;20229;-55
2022/04/26 13:54:05;;;;;;;13.60;9.77;;;;;;;;;;4977965;28;20324;-55
2022/04/26 13:56:31;;;;;;;11.70;10.50;;;;;;;;;;4974523;28;20240;-54
2022/04/26 13:58:57;;;;;;;12.33;10.73;;;;;;;;;;4965320;28;20248;-55
2022/04/26 14:01:23;;;;;;;11.63;10.53;;;;;;;;;;4968036;28;20213;-54
2022/04/26 14:03:49;;;;;;;11.37;10.27;;;;;;;;;;4976685;28;20185;-54
2022/04/26 14:06:18;;;;;;;12.00;10.23;;;;;;;;;;4976993;28;20213;-54
2022/04/26 14:08:48;;;;;;;11.53;10.33;;;;;;;;;;4980733;28;20194;-54
2022/04/26 14:11:14;;;;;;;11.17;10.13;;;;;;;;;;4972513;28;20193;-54
2022/04/26 14:21:53;;;;;;;14.03;10.37;;;;;;;;;;4976608;28;20517;-52
2022/04/26 14:24:19;;;;;;;12.67;10.40;;;;;;;;;;4975489;28;20277;-52
2022/04/26 14:26:45;;;;;;;14.63;9.50;;;;;;;;;;4979988;28;20194;-52
2022/04/26 14:29:11;;;;;;;10.70;9.10;;;;;;;;;;4980935;28;20318;-53
2022/04/26 14:31:38;;;;;;;10.40;8.32;;;;;;;;;;4982830;28;20198;-53
2022/04/26 14:34:04;;;;;;;8.23;7.43;;;;;;;;;;4985691;28;20194;-57
2022/04/26 14:36:30;;;;;;;10.90;9.80;;;;;;;;;;4982986;28;20186;-53
2022/04/26 14:38:56;;;;;;;12.60;9.40;;;;;;;;;;4990433;28;20198;-53
2022/04/26 14:41:22;;;;;;;11.00;9.90;;;;;;;;;;4981494;28;20701;-53
2022/04/26 14:43:48;;;;;;;12.17;10.80;;;;;;;;;;4983878;28;20272;-53
2022/04/26 14:46:14;;;;;;;14.40;10.53;;;;;;;;;;4968186;28;20261;-52
2022/04/26 14:48:40;;;;;;;12.53;10.83;;;;;;;;;;4977191;28;20198;-52
2022/04/26 14:51:06;;;;;;;11.17;10.17;;;;;;;;;;4988374;28;20673;-53
2022/04/26 14:53:32;;;;;;;11.37;9.33;;;;;;;;;;4981415;28;20189;-53
2022/04/26 14:55:58;;;;;;;11.30;9.60;;;;;;;;;;4979333;28;20186;-52
2022/04/26 14:58:24;;;;;;;11.10;8.87;;;;;;;;;;4981873;28;20244;-53
2022/04/26 15:00:51;;;;;;;10.13;9.13;;;;;;;;;;4979681;28;20269;-53
2022/04/26 15:03:17;;;;;;;11.97;9.17;;;;;;;;;;4986095;28;20201;-52
2022/04/26 15:05:43;;;;;;;10.27;9.13;;;;;;;;;;4987924;28;20191;-53
2022/04/26 15:10:54;;;;;;;19.03;9.00;;;;;;;;;;4975672;28;20626;-52
2022/04/26 15:18:49;;;;;;;9.77;8.77;;;;;;;;;;4981613;28;20807;-54
2022/04/26 15:21:16;;;;;;;11.27;8.87;;;;;;;;;;4984024;28;20214;-55
2022/04/26 15:23:41;;;;;;;10.70;9.17;;;;;;;;;;4983453;28;20209;-55
2022/04/26 15:26:09;;;;;;;9.90;8.90;;;;;;;;;;4987895;28;20652;-56
2022/04/26 15:28:35;;;;;;;10.10;9.03;;;;;;;;;;4987391;28;20273;-55
2022/04/26 15:31:01;;;;;;;9.93;8.93;;;;;;;;;;4983877;28;25811;-56
2022/04/26 15:33:27;;;;;;;10.33;9.30;;;;;;;;;;4988201;28;20643;-53
2022/04/26 15:35:53;;;;;;;8.97;8.03;;;;;;;;;;4983587;28;20196;-55
2022/04/26 15:38:19;;;;;;;8.30;6.40;;;;;;;;;;4981705;28;20201;-54
2022/04/26 15:40:46;;;;;;;7.33;5.40;;;;;;;;;;4981102;28;20336;-53
2022/04/26 15:43:12;;;;;;;12.27;6.10;;;;;;;;;;4983564;28;20783;-51
2022/04/26 15:45:38;;;;;;;8.27;5.80;;;;;;;;;;4982803;28;20194;-53
2022/04/26 15:48:05;;;;;;;6.43;5.90;;;;;;;;;;4975626;28;21929;-52
2022/04/26 15:50:31;;;;;;;6.93;6.27;;;;;;;;;;4976260;28;20252;-55
2022/04/26 15:52:57;;;;;;;7.40;6.70;;;;;;;;;;4982359;28;20206;-53
2022/04/26 15:55:23;;;;;;;8.13;6.93;;;;;;;;;;4972867;28;21851;-54
2022/04/26 15:57:54;;;;;;;7.97;7.23;;;;;;;;;;4979530;28;20218;-55
2022/04/26 16:00:20;;;;;;;7.40;6.80;;;;;;;;;;4978884;28;20182;-52
2022/04/26 16:02:49;;;;;;;9.50;7.30;;;;;;;;;;4980582;28;20210;-52
2022/04/26 16:05:16;;;;;;;8.20;7.40;;;;;;;;;;4981556;28;20197;-52
2022/04/26 16:07:42;;;;;;;8.27;7.47;;;;;;;;;;4970931;28;20706;-53
2022/04/26 16:21:06;;;;;;;8.20;7.53;;;;;;;;;;4983286;28;20197;-53
2022/04/26 16:23:32;;;;;;;8.70;8.00;;;;;;;;;;4979607;28;20190;-53
2022/04/26 16:26:06;;;;;;;9.90;8.00;;;;;;;;;;4979579;28;20772;-52
2022/04/26 16:28:36;;;;;;;9.20;8.37;;;;;;;;;;4965007;28;20178;-53
2022/04/26 16:31:03;;;;;;;9.30;8.40;;;;;;;;;;4957879;28;20194;-53
2022/04/26 16:33:29;;;;;;;8.73;7.93;;;;;;;;;;4963494;28;20655;-51
2022/04/26 16:35:55;;;;;;;9.50;8.53;;;;;;;;;;4971858;28;20288;-51
2022/04/26 16:38:21;;;;;;;11.47;9.67;;;;;;;;;;4975578;28;20193;-52
2022/04/26 16:40:50;;;;;;;13.73;11.20;;;;;;;;;;4975934;28;20285;-52
2022/04/26 16:43:16;;;;;;;13.40;11.13;;;;;;;;;;4972339;28;20344;-51
2022/04/26 16:45:46;;;;;;;13.23;10.43;;;;;;;;;;4976306;28;20186;-51
2022/04/26 16:48:12;;;;;;;12.30;11.20;;;;;;;;;;4974394;28;20300;-52
2022/04/26 16:50:38;;;;;;;12.37;11.17;;;;;;;;;;4971679;28;20189;-51
2022/04/26 16:53:04;;;;;;;12.30;11.00;;;;;;;;;;4967685;28;20308;-52
2022/04/26 16:55:30;;;;;;;12.60;11.40;;;;;;;;;;4979858;28;20293;-51
2022/04/26 16:57:57;;;;;;;11.90;10.80;;;;;;;;;;4967079;28;20196;-52
2022/04/26 17:00:24;;;;;;;12.63;10.93;;;;;;;;;;4982331;28;20206;-51
2022/04/26 17:02:50;;;;;;;12.33;11.03;;;;;;;;;;4980536;28;20890;-51
2022/04/26 17:05:16;;;;;;;12.57;11.37;;;;;;;;;;4983395;28;20701;-52
2022/04/26 17:07:42;;;;;;;12.53;10.63;;;;;;;;;;4972493;28;20238;-52
2022/04/26 17:10:08;;;;;;;11.57;10.37;;;;;;;;;;4986093;28;20255;-52
2022/04/26 17:12:34;;;;;;;12.53;11.33;;;;;;;;;;4978963;28;20189;-51
2022/04/26 17:15:00;;;;;;;11.70;10.60;;;;;;;;;;4976684;28;20205;-51
2022/04/26 17:17:28;;;;;;;11.60;10.50;;;;;;;;;;4986866;28;21373;-52
2022/04/26 17:19:54;;;;;;;11.30;10.20;;;;;;;;;;4987262;28;20213;-51
2022/04/26 17:22:20;;;;;;;12.20;11.10;;;;;;;;;;4986077;28;20213;-52
2022/04/26 17:27:30;;;;;;;11.57;10.53;;;;;;;;;;4981260;28;20963;-52
2022/04/26 17:29:56;;;;;;;11.80;10.60;;;;;;;;;;4987430;28;20344;-52
2022/04/26 17:32:22;;;;;;;11.90;10.70;;;;;;;;;;4972562;28;20332;-53
2022/04/26 17:34:50;;;;;;;12.30;11.20;;;;;;;;;;4980994;28;20209;-54
2022/04/26 17:37:15;;;;;;;11.60;10.57;;;;;;;;;;4976595;28;20673;-55
2022/04/26 17:39:42;;;;;;;13.57;10.93;;;;;;;;;;4979798;28;20208;-56
2022/04/26 17:42:08;;;;;;;12.07;10.87;;;;;;;;;;4975470;28;20288;-57
2022/04/26 17:44:35;;;;;;;14.07;11.90;;;;;;;;;;4981754;28;20200;-55
2022/04/26 17:47:01;;;;;;;12.83;11.63;;;;;;;;;;4971826;28;20198;-57
2022/04/26 17:49:28;;;;;;;13.50;12.13;;;;;;;;;;4973038;28;20189;-57
2022/04/26 17:51:54;;;;;;;13.20;12.00;;;;;;;;;;4974567;28;20221;-57
2022/04/26 17:57:04;;;;;;;13.90;12.50;;;;;;;;;;4982577;28;20266;-57
2022/04/26 17:59:30;;;;;;;12.93;11.83;;;;;;;;;;4965747;28;20893;-57
2022/04/26 18:01:56;;;;;;;14.60;13.20;;;;;;;;;;4973964;28;20285;-56
2022/04/26 18:04:22;;;;;;;14.67;13.30;;;;;;;;;;4978495;28;20836;-55
2022/04/26 18:06:49;;;;;;;14.90;13.40;;;;;;;;;;4982072;28;20727;-57
2022/04/26 18:09:15;;;;;;;15.07;13.77;;;;;;;;;;4978194;28;20704;-58
2022/04/26 18:11:40;;;;;;;15.73;14.30;;;;;;;;;;4980852;28;21011;-57
2022/04/26 18:14:07;;;;;;;16.00;14.60;;;;;;;;;;4984195;28;20255;-57
2022/04/26 18:16:33;;;;;;;16.47;14.87;;;;;;;;;;4981630;28;20193;-57
2022/04/26 18:19:03;;;;;;;16.43;14.90;;;;;;;;;;4978564;28;20194;-57
2022/04/26 18:21:29;;;;;;;14.93;13.53;;;;;;;;;;4976256;28;20961;-57
2022/04/26 18:23:55;;;;;;;15.37;14.07;;;;;;;;;;4980316;28;20224;-55
2022/04/26 18:26:21;;;;;;;15.77;14.13;;;;;;;;;;4984872;28;20642;-56
2022/04/26 18:28:49;;;;;;;16.20;14.73;;;;;;;;;;4981712;28;21101;-56
2022/04/26 18:31:16;;;;;;;15.80;14.40;;;;;;;;;;4979830;28;20205;-57
2022/04/26 18:33:42;;;;;;;15.97;14.57;;;;;;;;;;4983447;28;20194;-57
2022/04/26 18:36:08;;;;;;;16.03;14.13;;;;;;;;;;4989868;28;20328;-56
2022/04/26 18:38:37;;;;;;;17.43;15.77;;;;;;;;;;4987090;28;20198;-56
2022/04/26 18:41:03;;;;;;;17.50;15.90;;;;;;;;;;4985914;28;20540;-56
2022/04/26 18:43:29;;;;;;;16.67;15.07;;;;;;;;;;4981289;28;20248;-56
2022/04/26 18:45:57;;;;;;;16.30;14.80;;;;;;;;;;4987945;28;20210;-55
2022/04/26 18:48:23;;;;;;;15.93;14.43;;;;;;;;;;4984231;28;20271;-56
2022/04/26 18:50:49;;;;;;;17.30;15.70;;;;;;;;;;4986412;28;20272;-56
2022/04/26 18:53:15;;;;;;;16.37;14.90;;;;;;;;;;4980996;28;20193;-56